Sulphur Espoir — 3FXA2 — position and weather

sailwx.info

Track history (hours):
 
Tides and Currents Weather Stations Pressure Air Temp Water Temp Dewpoint Dewpoint Depression Visibility Wind Speed Wind Dir Waves Ship Positions

Sulphur Espoir

Last reported at 2017-Dec-10 16:50 UTC. Time now 2017-Dec-13 14:55 UTC.
Position N 32°01' E 120°25'.

Length 100 m; draft 6.1 m.

Type: Ship (hazmat cat C). MMSI: 373734000.

Date/timePositionNaut miles runAvg speedWind from/ knotsBaromVisibWave heightAir tempDewpointWater temp
2017-Dec-10 16:50N 32°01' E 120°25'4 9.1
2017-Dec-10 16:26N 32°02' E 120°29'35 9.6
2017-Dec-10 12:49N 31°45' E 121°05'511.4
2017-Dec-10 12:23N 31°42' E 121°09'610.6
2017-Dec-10 11:47N 31°38' E 121°15'412.1
2017-Dec-10 11:26N 31°35' E 121°18'611.7
2017-Dec-10 10:55N 31°31' E 121°24'35 9.8
2017-Dec-10 07:18N 31°08' E 121°55'411.6
2017-Dec-10 07:00N 31°06' E 121°59'510.3
2017-Dec-10 06:30N 31°04' E 122°04'611.8
2017-Dec-10 06:00N 31°03' E 122°11'6 9.4
2017-Dec-10 05:21N 31°03' E 122°18'  
2017-Dec-04 10:30N 35°22' E 139°41'0 0.0
2017-Dec-04 10:00N 35°22' E 139°41'0 0.0
2017-Dec-04 09:30N 35°22' E 139°41'0 0.0
2017-Dec-04 09:00N 35°22' E 139°41'0 0.0
2017-Dec-04 08:27N 35°22' E 139°41'0 0.0
2017-Dec-04 08:00N 35°22' E 139°41'0 0.0
2017-Dec-04 07:30N 35°22' E 139°41'0 0.1
2017-Dec-04 07:00N 35°22' E 139°41'0 0.1
2017-Dec-04 06:30N 35°22' E 139°40'0 0.0
2017-Dec-04 06:00N 35°22' E 139°40'0 0.0
2017-Dec-04 05:30N 35°23' E 139°40'0 0.0
2017-Dec-04 05:00N 35°23' E 139°40'0 0.0
2017-Dec-04 04:30N 35°22' E 139°40'0 0.0
2017-Dec-04 04:00N 35°23' E 139°40'0 0.0
2017-Dec-04 03:30N 35°23' E 139°40'0 0.1
2017-Dec-04 02:57N 35°22' E 139°41'0 0.1
2017-Dec-04 02:30N 35°22' E 139°41'0 0.0
2017-Dec-04 02:00N 35°22' E 139°41'0 0.0
2017-Dec-04 01:30N 35°22' E 139°41'0 0.0
2017-Dec-04 01:00N 35°22' E 139°41'0 0.0
2017-Dec-04 00:30N 35°22' E 139°41'0 0.0
2017-Dec-04 00:00N 35°22' E 139°41'0 0.0
2017-Dec-03 23:30N 35°22' E 139°41'0 0.0
2017-Dec-03 23:00N 35°22' E 139°41'0 0.0
2017-Dec-03 22:30N 35°22' E 139°41'0 0.1
2017-Dec-03 22:00N 35°22' E 139°41'2 4.6
2017-Dec-03 21:31N 35°21' E 139°42'611.1
2017-Dec-03 21:01N 35°16' E 139°46'510.9
2017-Dec-03 20:30N 35°11' E 139°47'611.0
2017-Dec-03 20:00N 35°06' E 139°44'4 8.3
2017-Dec-03 19:30N 35°03' E 139°40'510.5
2017-Dec-03 19:00N 34°60' E 139°35'612.0
2017-Dec-03 18:28N 34°56' E 139°29'612.4
2017-Dec-03 18:00N 34°52' E 139°24'711.9
2017-Dec-03 17:27N 34°48' E 139°18'511.0
2017-Dec-03 17:00N 34°44' E 139°14'611.3
2017-Dec-03 16:30N 34°39' E 139°10'611.4
2017-Dec-03 15:58N 34°34' E 139°05'611.9
2017-Dec-03 15:30N 34°32' E 138°60'612.5
2017-Dec-03 15:00N 34°31' E 138°52'612.3
2017-Dec-03 14:30N 34°30' E 138°45'612.0
2017-Dec-03 13:58N 34°29' E 138°37'611.8
2017-Dec-03 13:27N 34°28' E 138°30'1012.1
2017-Dec-03 12:40N 34°26' E 138°18'16511.0
2017-Dec-02 21:43N 33°46' E 135°05'512.5
2017-Dec-02 21:17N 33°50' E 135°01'311.8
2017-Dec-02 21:01N 33°52' E 134°59'612.0
2017-Dec-02 20:30N 33°58' E 134°59'612.1
2017-Dec-02 20:00N 34°04' E 134°58'612.3
2017-Dec-02 19:30N 34°11' E 134°58'612.9
2017-Dec-02 19:01N 34°17' E 134°59'611.5
2017-Dec-02 18:30N 34°23' E 134°60'612.5
2017-Dec-02 18:01N 34°29' E 135°02'612.1
2017-Dec-02 17:30N 34°35' E 135°04'612.9
2017-Dec-02 17:00N 34°36' E 134°56'815.1
2017-Dec-02 16:31N 34°32' E 134°48'713.4
2017-Dec-02 16:00N 34°30' E 134°40'613.0
2017-Dec-02 15:31N 34°27' E 134°33'8012.3
2017-Dec-02 08:59N 34°09' E 132°58'1112.5
2017-Dec-02 08:05N 34°07' E 132°45'313.0
2017-Dec-02 07:51N 34°05' E 132°42'412.8
2017-Dec-02 07:31N 34°02' E 132°38'612.1
2017-Dec-02 07:00N 34°01' E 132°31'611.7
2017-Dec-02 06:30N 34°04' E 132°25'612.8
2017-Dec-02 06:00N 34°09' E 132°19'510.3
2017-Dec-02 05:30N 34°12' E 132°15'0 0.1
2017-Dec-02 04:58N 34°12' E 132°15'0 0.0
2017-Dec-02 04:28N 34°12' E 132°15'0 0.0
2017-Dec-02 03:52N 34°12' E 132°15'0 0.0
2017-Dec-02 03:28N 34°12' E 132°15'0 0.0
2017-Dec-02 02:58N 34°12' E 132°15'0 0.0
2017-Dec-02 02:28N 34°12' E 132°15'0 0.0
2017-Dec-02 01:58N 34°12' E 132°15'0 0.0
2017-Dec-02 01:28N 34°12' E 132°15'0 1.0
2017-Dec-02 01:00N 34°12' E 132°15'1 2.0
2017-Dec-02 00:28N 34°11' E 132°16'0 0.0
2017-Dec-01 23:58N 34°11' E 132°16'0 0.1
2017-Dec-01 23:28N 34°11' E 132°16'0 0.0
2017-Dec-01 22:58N 34°11' E 132°16'0 0.1
2017-Dec-01 22:28N 34°11' E 132°16'0 0.0
2017-Dec-01 21:55N 34°11' E 132°16'0 0.1
2017-Dec-01 21:28N 34°11' E 132°16'0 0.1
2017-Dec-01 20:52N 34°11' E 132°16'0 0.0
2017-Dec-01 20:25N 34°11' E 132°16'0 0.1
2017-Dec-01 19:55N 34°11' E 132°16'0 0.1
2017-Dec-01 19:28N 34°11' E 132°16'0 0.0
2017-Dec-01 18:58N 34°11' E 132°16'0 0.0
2017-Dec-01 18:25N 34°11' E 132°16'0 0.0
2017-Dec-01 17:49N 34°11' E 132°16'0 0.0
2017-Dec-01 17:22N 34°11' E 132°16'0 0.0
2017-Dec-01 16:58N 34°11' E 132°16'0 0.0
2017-Dec-01 16:28N 34°11' E 132°16'0 0.1
2017-Dec-01 15:55N 34°11' E 132°16'0 0.0
2017-Dec-01 15:28N 34°11' E 132°16'0 0.0
2017-Dec-01 14:58N 34°11' E 132°16'0 0.1
2017-Dec-01 14:25N 34°11' E 132°16'0 0.0
2017-Dec-01 13:58N 34°11' E 132°16'0 0.0
2017-Dec-01 13:25N 34°11' E 132°16'0 0.0
2017-Dec-01 12:58N 34°11' E 132°16'0 0.0
2017-Dec-01 12:28N 34°11' E 132°16'0 0.0
2017-Dec-01 11:58N 34°11' E 132°16'0 0.0
2017-Dec-01 11:28N 34°11' E 132°16'0 0.0
2017-Dec-01 10:49N 34°11' E 132°16'0 0.0
2017-Dec-01 10:28N 34°11' E 132°16'0 0.0
2017-Dec-01 09:55N 34°11' E 132°16'0 0.0
2017-Dec-01 09:25N 34°11' E 132°16'0 0.0
2017-Dec-01 08:58N 34°11' E 132°16'0 0.0
2017-Dec-01 08:28N 34°11' E 132°16'0 0.1
2017-Dec-01 07:52N 34°11' E 132°16'0 0.0
2017-Dec-01 07:28N 34°11' E 132°16'0 0.0
2017-Dec-01 06:58N 34°11' E 132°16'0 0.0
2017-Dec-01 06:25N 34°11' E 132°16'0 0.0
2017-Dec-01 05:58N 34°11' E 132°16'0 0.2
2017-Dec-01 05:28N 34°11' E 132°16'0 0.0
2017-Dec-01 04:52N 34°11' E 132°16'0 0.2
2017-Dec-01 04:28N 34°11' E 132°16'0 0.0
2017-Dec-01 03:58N 34°11' E 132°16'0 0.0
2017-Dec-01 03:28N 34°11' E 132°16'0 0.0
2017-Dec-01 02:58N 34°11' E 132°16'0 0.0
2017-Dec-01 02:28N 34°11' E 132°16'0 0.0
2017-Dec-01 01:55N 34°11' E 132°16'0 0.1
2017-Dec-01 01:28N 34°11' E 132°16'0 0.0
2017-Dec-01 00:55N 34°11' E 132°16'0 0.0
2017-Dec-01 00:25N 34°11' E 132°16'0 0.0
2017-Nov-30 23:58N 34°11' E 132°16'0 0.0
2017-Nov-30 23:28N 34°11' E 132°16'0 0.0
2017-Nov-30 22:55N 34°11' E 132°16'0 0.0
2017-Nov-30 22:28N 34°11' E 132°16'0 0.0
2017-Nov-30 21:58N 34°11' E 132°16'0 0.0
2017-Nov-30 21:25N 34°11' E 132°16'0 0.0
2017-Nov-30 20:58N 34°11' E 132°16'0 0.0
2017-Nov-30 20:25N 34°11' E 132°16'0 0.1
2017-Nov-30 19:58N 34°11' E 132°16'0 0.1
2017-Nov-30 19:28N 34°11' E 132°16'0 0.1
2017-Nov-30 18:58N 34°11' E 132°16'0 0.1
2017-Nov-30 18:28N 34°11' E 132°16'0 0.0
2017-Nov-30 17:55N 34°11' E 132°16'0 0.0
2017-Nov-30 17:28N 34°11' E 132°16'0 0.0
2017-Nov-30 16:58N 34°11' E 132°16'  
Track history (hours):
 
Tides and Currents Weather Stations Pressure Air Temp Water Temp Dewpoint Dewpoint Depression Visibility Wind Speed Wind Dir Waves Ship Positions

Sulphur Espoir

Last reported at 2017-Dec-10 16:50 UTC. Time now 2017-Dec-13 14:55 UTC.
Position N 32°01' E 120°25'.

Length 100 m; draft 6.1 m.

Type: Ship (hazmat cat C). MMSI: 373734000.

Date/timePositionNaut miles runAvg speedWind from/ knotsBaromVisibWave heightAir tempDewpointWater temp
2017-Dec-10 16:50N 32°01' E 120°25'4 9.1
2017-Dec-10 16:26N 32°02' E 120°29'35 9.6
2017-Dec-10 12:49N 31°45' E 121°05'511.4
2017-Dec-10 12:23N 31°42' E 121°09'610.6
2017-Dec-10 11:47N 31°38' E 121°15'412.1
2017-Dec-10 11:26N 31°35' E 121°18'611.7
2017-Dec-10 10:55N 31°31' E 121°24'35 9.8
2017-Dec-10 07:18N 31°08' E 121°55'411.6
2017-Dec-10 07:00N 31°06' E 121°59'510.3
2017-Dec-10 06:30N 31°04' E 122°04'611.8
2017-Dec-10 06:00N 31°03' E 122°11'6 9.4
2017-Dec-10 05:21N 31°03' E 122°18'  
2017-Dec-04 10:30N 35°22' E 139°41'0 0.0
2017-Dec-04 10:00N 35°22' E 139°41'0 0.0
2017-Dec-04 09:30N 35°22' E 139°41'0 0.0
2017-Dec-04 09:00N 35°22' E 139°41'0 0.0
2017-Dec-04 08:27N 35°22' E 139°41'0 0.0
2017-Dec-04 08:00N 35°22' E 139°41'0 0.0
2017-Dec-04 07:30N 35°22' E 139°41'0 0.1
2017-Dec-04 07:00N 35°22' E 139°41'0 0.1
2017-Dec-04 06:30N 35°22' E 139°40'0 0.0
2017-Dec-04 06:00N 35°22' E 139°40'0 0.0
2017-Dec-04 05:30N 35°23' E 139°40'0 0.0
2017-Dec-04 05:00N 35°23' E 139°40'0 0.0
2017-Dec-04 04:30N 35°22' E 139°40'0 0.0
2017-Dec-04 04:00N 35°23' E 139°40'0 0.0
2017-Dec-04 03:30N 35°23' E 139°40'0 0.1
2017-Dec-04 02:57N 35°22' E 139°41'0 0.1
2017-Dec-04 02:30N 35°22' E 139°41'0 0.0
2017-Dec-04 02:00N 35°22' E 139°41'0 0.0
2017-Dec-04 01:30N 35°22' E 139°41'0 0.0
2017-Dec-04 01:00N 35°22' E 139°41'0 0.0
2017-Dec-04 00:30N 35°22' E 139°41'0 0.0
2017-Dec-04 00:00N 35°22' E 139°41'0 0.0
2017-Dec-03 23:30N 35°22' E 139°41'0 0.0
2017-Dec-03 23:00N 35°22' E 139°41'0 0.0
2017-Dec-03 22:30N 35°22' E 139°41'0 0.1
2017-Dec-03 22:00N 35°22' E 139°41'2 4.6
2017-Dec-03 21:31N 35°21' E 139°42'611.1
2017-Dec-03 21:01N 35°16' E 139°46'510.9
2017-Dec-03 20:30N 35°11' E 139°47'611.0
2017-Dec-03 20:00N 35°06' E 139°44'4 8.3
2017-Dec-03 19:30N 35°03' E 139°40'510.5
2017-Dec-03 19:00N 34°60' E 139°35'612.0
2017-Dec-03 18:28N 34°56' E 139°29'612.4
2017-Dec-03 18:00N 34°52' E 139°24'711.9
2017-Dec-03 17:27N 34°48' E 139°18'511.0
2017-Dec-03 17:00N 34°44' E 139°14'611.3
2017-Dec-03 16:30N 34°39' E 139°10'611.4
2017-Dec-03 15:58N 34°34' E 139°05'611.9
2017-Dec-03 15:30N 34°32' E 138°60'612.5
2017-Dec-03 15:00N 34°31' E 138°52'612.3
2017-Dec-03 14:30N 34°30' E 138°45'612.0
2017-Dec-03 13:58N 34°29' E 138°37'611.8
2017-Dec-03 13:27N 34°28' E 138°30'1012.1
2017-Dec-03 12:40N 34°26' E 138°18'16511.0
2017-Dec-02 21:43N 33°46' E 135°05'512.5
2017-Dec-02 21:17N 33°50' E 135°01'311.8
2017-Dec-02 21:01N 33°52' E 134°59'612.0
2017-Dec-02 20:30N 33°58' E 134°59'612.1
2017-Dec-02 20:00N 34°04' E 134°58'612.3
2017-Dec-02 19:30N 34°11' E 134°58'612.9
2017-Dec-02 19:01N 34°17' E 134°59'611.5
2017-Dec-02 18:30N 34°23' E 134°60'612.5
2017-Dec-02 18:01N 34°29' E 135°02'612.1
2017-Dec-02 17:30N 34°35' E 135°04'612.9
2017-Dec-02 17:00N 34°36' E 134°56'815.1
2017-Dec-02 16:31N 34°32' E 134°48'713.4
2017-Dec-02 16:00N 34°30' E 134°40'613.0
2017-Dec-02 15:31N 34°27' E 134°33'8012.3
2017-Dec-02 08:59N 34°09' E 132°58'1112.5
2017-Dec-02 08:05N 34°07' E 132°45'313.0
2017-Dec-02 07:51N 34°05' E 132°42'412.8
2017-Dec-02 07:31N 34°02' E 132°38'612.1
2017-Dec-02 07:00N 34°01' E 132°31'611.7
2017-Dec-02 06:30N 34°04' E 132°25'612.8
2017-Dec-02 06:00N 34°09' E 132°19'510.3
2017-Dec-02 05:30N 34°12' E 132°15'0 0.1
2017-Dec-02 04:58N 34°12' E 132°15'0 0.0
2017-Dec-02 04:28N 34°12' E 132°15'0 0.0
2017-Dec-02 03:52N 34°12' E 132°15'0 0.0
2017-Dec-02 03:28N 34°12' E 132°15'0 0.0
2017-Dec-02 02:58N 34°12' E 132°15'0 0.0
2017-Dec-02 02:28N 34°12' E 132°15'0 0.0
2017-Dec-02 01:58N 34°12' E 132°15'0 0.0
2017-Dec-02 01:28N 34°12' E 132°15'0 1.0
2017-Dec-02 01:00N 34°12' E 132°15'1 2.0
2017-Dec-02 00:28N 34°11' E 132°16'0 0.0
2017-Dec-01 23:58N 34°11' E 132°16'0 0.1
2017-Dec-01 23:28N 34°11' E 132°16'0 0.0
2017-Dec-01 22:58N 34°11' E 132°16'0 0.1
2017-Dec-01 22:28N 34°11' E 132°16'0 0.0
2017-Dec-01 21:55N 34°11' E 132°16'0 0.1
2017-Dec-01 21:28N 34°11' E 132°16'0 0.1
2017-Dec-01 20:52N 34°11' E 132°16'0 0.0
2017-Dec-01 20:25N 34°11' E 132°16'0 0.1
2017-Dec-01 19:55N 34°11' E 132°16'0 0.1
2017-Dec-01 19:28N 34°11' E 132°16'0 0.0
2017-Dec-01 18:58N 34°11' E 132°16'0 0.0
2017-Dec-01 18:25N 34°11' E 132°16'0 0.0
2017-Dec-01 17:49N 34°11' E 132°16'0 0.0
2017-Dec-01 17:22N 34°11' E 132°16'0 0.0
2017-Dec-01 16:58N 34°11' E 132°16'0 0.0
2017-Dec-01 16:28N 34°11' E 132°16'0 0.1
2017-Dec-01 15:55N 34°11' E 132°16'0 0.0
2017-Dec-01 15:28N 34°11' E 132°16'0 0.0
2017-Dec-01 14:58N 34°11' E 132°16'0 0.1
2017-Dec-01 14:25N 34°11' E 132°16'0 0.0
2017-Dec-01 13:58N 34°11' E 132°16'0 0.0
2017-Dec-01 13:25N 34°11' E 132°16'0 0.0
2017-Dec-01 12:58N 34°11' E 132°16'0 0.0
2017-Dec-01 12:28N 34°11' E 132°16'0 0.0
2017-Dec-01 11:58N 34°11' E 132°16'0 0.0
2017-Dec-01 11:28N 34°11' E 132°16'0 0.0
2017-Dec-01 10:49N 34°11' E 132°16'0 0.0
2017-Dec-01 10:28N 34°11' E 132°16'0 0.0
2017-Dec-01 09:55N 34°11' E 132°16'0 0.0
2017-Dec-01 09:25N 34°11' E 132°16'0 0.0
2017-Dec-01 08:58N 34°11' E 132°16'0 0.0
2017-Dec-01 08:28N 34°11' E 132°16'0 0.1
2017-Dec-01 07:52N 34°11' E 132°16'0 0.0
2017-Dec-01 07:28N 34°11' E 132°16'0 0.0
2017-Dec-01 06:58N 34°11' E 132°16'0 0.0
2017-Dec-01 06:25N 34°11' E 132°16'0 0.0
2017-Dec-01 05:58N 34°11' E 132°16'0 0.2
2017-Dec-01 05:28N 34°11' E 132°16'0 0.0
2017-Dec-01 04:52N 34°11' E 132°16'0 0.2
2017-Dec-01 04:28N 34°11' E 132°16'0 0.0
2017-Dec-01 03:58N 34°11' E 132°16'0 0.0
2017-Dec-01 03:28N 34°11' E 132°16'0 0.0
2017-Dec-01 02:58N 34°11' E 132°16'0 0.0
2017-Dec-01 02:28N 34°11' E 132°16'0 0.0
2017-Dec-01 01:55N 34°11' E 132°16'0 0.1
2017-Dec-01 01:28N 34°11' E 132°16'0 0.0
2017-Dec-01 00:55N 34°11' E 132°16'0 0.0
2017-Dec-01 00:25N 34°11' E 132°16'0 0.0
2017-Nov-30 23:58N 34°11' E 132°16'0 0.0
2017-Nov-30 23:28N 34°11' E 132°16'0 0.0
2017-Nov-30 22:55N 34°11' E 132°16'0 0.0
2017-Nov-30 22:28N 34°11' E 132°16'0 0.0
2017-Nov-30 21:58N 34°11' E 132°16'0 0.0
2017-Nov-30 21:25N 34°11' E 132°16'0 0.0
2017-Nov-30 20:58N 34°11' E 132°16'0 0.0
2017-Nov-30 20:25N 34°11' E 132°16'0 0.1
2017-Nov-30 19:58N 34°11' E 132°16'0 0.1
2017-Nov-30 19:28N 34°11' E 132°16'0 0.1
2017-Nov-30 18:58N 34°11' E 132°16'0 0.1
2017-Nov-30 18:28N 34°11' E 132°16'0 0.0
2017-Nov-30 17:55N 34°11' E 132°16'0 0.0
2017-Nov-30 17:28N 34°11' E 132°16'0 0.0
2017-Nov-30 16:58N 34°11' E 132°16'  

Dump ship's entire track history